Terminal Aerodrome Forecast
Issued by NWS Tampa Bay Area, FL

Home | Current Version | Previous Version | Text Only | Print | Product List | Glossary On
Versions: 1 2 3 4 5 6 7 8 9 10 11 12 13 14 15 16 17
653
FTUS42 KTBW 251310 AAA
TAFFMY
TAF AMD
KFMY 251310Z 2513/2612 22011KT P6SM VCTS SCT025CB BKN040
      TEMPO 2513/2514 3SM -SHRA BR BKN020 OVC040
     FM251500 23018G20KT P6SM SCT025 BKN040
     FM252300 28011KT P6SM SCT250
     FM260100 VRB03KT P6SM FEW250
     FM261100 03004KT P6SM FEW025 SCT250=

USA.gov is the U.S. government's official web portal to all federal, state and local government web resources and services.